Time;durP1;ratioP1;P1;durP2;ratioP2;P2;SDS_P1;SDS_P2;PMS_P1;PMS_P2;Temp;Humidity;BMP_temperature;BMP_pressure;BME280_temperature;BME280_humidity;BME280_pressure;Samples;Min_cycle;Max_cycle;Signal;HPM_P1;HPM_P2
2023/04/13 00:00:34;;;;;;;5.43;3.30;;;9.00;99.90;;;9.20;96.20;99053.22;4996638;28;20050;-72
2023/04/13 00:03:10;;;;;;;6.07;3.70;;;9.00;99.90;;;9.14;96.62;99046.34;4996864;28;20496;-73
2023/04/13 00:05:41;;;;;;;6.82;4.47;;;8.90;99.90;;;9.02;96.82;99015.03;4996564;28;20053;-73
2023/04/13 00:08:09;;;;;;;7.85;4.45;;;9.00;99.90;;;9.06;96.85;99043.03;4995372;28;20133;-73
2023/04/13 00:10:40;;;;;;;6.28;4.10;;;8.90;99.90;;;9.05;96.85;99046.59;4996525;28;20121;-73
2023/04/13 00:13:10;;;;;;;5.10;3.63;;;8.90;99.90;;;9.01;96.51;99042.31;4996498;28;20409;-73
2023/04/13 00:15:43;;;;;;;7.05;4.55;;;8.80;99.90;;;8.91;95.71;99027.66;4996678;28;20050;-73
2023/04/13 00:18:11;;;;;;;4.80;4.05;;;8.80;99.90;;;8.80;94.94;99011.28;4996694;28;20138;-73
2023/04/13 00:20:42;;;;;;;10.77;4.65;;;8.90;99.90;;;9.09;94.00;99035.94;4996304;28;20042;-73
2023/04/13 00:23:11;;;;;;;5.50;4.22;;;8.90;99.90;;;9.09;93.94;99048.25;4995350;28;20565;-73
2023/04/13 00:25:40;;;;;;;4.82;3.88;;;8.90;99.90;;;9.13;93.63;99063.09;4996519;28;20084;-73
2023/04/13 00:28:09;;;;;;;4.23;3.93;;;8.90;99.90;;;9.15;94.12;99061.28;4995071;28;20554;-73
2023/04/13 00:30:37;;;;;;;9.40;4.35;;;8.90;99.90;;;9.21;94.26;99066.38;4994899;28;20058;-73
2023/04/13 00:33:06;;;;;;;8.38;4.78;;;9.00;99.90;;;9.25;94.97;99070.66;4996454;28;20046;-72
2023/04/13 00:35:34;;;;;;;8.23;5.70;;;9.00;99.90;;;9.28;95.56;99075.84;4996584;28;20137;-73
2023/04/13 00:38:03;;;;;;;9.82;6.88;;;9.00;99.90;;;9.37;96.01;99082.66;4996298;28;20092;-73
2023/04/13 00:40:32;;;;;;;9.98;6.78;;;9.10;99.90;;;9.28;95.90;99067.06;4994946;28;20050;-73
2023/04/13 00:43:01;;;;;;;7.40;4.70;;;9.10;99.90;;;9.31;96.02;99096.00;4995851;28;20077;-73
2023/04/13 00:45:30;;;;;;;9.30;4.33;;;9.10;99.90;;;9.10;95.69;99066.66;4996240;28;20064;-73
2023/04/13 00:47:58;;;;;;;4.63;4.10;;;9.00;99.90;;;9.24;95.86;99094.41;4996058;28;20125;-73
2023/04/13 00:50:28;;;;;;;6.93;3.90;;;9.00;99.90;;;9.31;95.92;99103.91;4996003;28;20407;-73
2023/04/13 00:52:57;;;;;;;6.35;3.95;;;9.00;99.90;;;9.35;95.38;99100.28;4996014;28;20044;-72
2023/04/13 00:55:26;;;;;;;9.40;4.43;;;9.00;99.90;;;9.42;95.20;99096.56;4994250;28;20104;-73
2023/04/13 00:57:56;;;;;;;9.35;4.15;;;9.10;99.90;;;9.39;95.71;99108.06;4995695;28;20449;-73
2023/04/13 01:00:26;;;;;;;9.10;3.75;;;9.10;99.90;;;9.43;95.69;99103.53;4994597;28;20116;-73
2023/04/13 01:02:56;;;;;;;9.85;4.50;;;9.20;99.90;;;9.58;95.44;99130.38;4994645;28;20484;-73
2023/04/13 01:05:28;;;;;;;9.30;3.80;;;9.20;99.90;;;9.63;95.45;99117.94;4995758;28;20038;-73
2023/04/13 01:08:08;;;;;;;10.05;3.70;;;9.40;99.90;;;9.63;94.80;99130.25;4995761;28;20039;-73
2023/04/13 01:10:43;;;;;;;8.50;3.95;;;9.30;99.90;;;9.67;94.35;99134.53;4995761;28;20047;-73
2023/04/13 01:13:21;;;;;;;6.13;4.55;;;9.40;99.90;;;9.74;94.04;99131.66;4994412;28;20047;-73
2023/04/13 01:16:02;;;;;;;9.18;4.82;;;9.50;99.90;;;9.80;92.57;99144.69;4994386;28;20054;-73
2023/04/13 01:18:38;;;;;;;;;;;9.60;99.90;;;9.70;91.02;99150.28;4994845;28;20444;-73
2023/04/13 01:21:13;;;;;;;9.32;4.65;;;9.50;99.90;;;9.73;90.08;99156.34;4994329;28;20056;-73
2023/04/13 01:23:56;;;;;;;8.13;4.93;;;9.50;99.90;;;9.87;89.50;99162.06;4994497;28;20046;-74
2023/04/13 01:26:37;;;;;;;16.17;4.70;;;9.60;99.90;;;9.89;89.30;99162.06;4994166;28;20129;-74
2023/04/13 01:29:07;;;;;;;14.18;5.30;;;9.60;99.90;;;9.93;89.14;99166.31;4995166;28;20065;-74
2023/04/13 01:31:36;;;;;;;9.40;4.18;;;9.70;99.90;;;9.91;88.76;99165.53;4993871;28;20404;-74
2023/04/13 01:34:05;;;;;;;13.90;5.03;;;9.70;99.90;;;9.93;88.21;99182.16;4993994;28;20104;-73
2023/04/13 01:36:34;;;;;;;15.73;4.97;;;9.70;99.90;;;9.98;88.05;99167.94;4993940;28;20046;-74
2023/04/13 01:39:03;;;;;;;11.63;4.38;;;9.70;99.90;;;9.94;87.41;99183.91;4993924;28;20137;-74
2023/04/13 01:41:32;;;;;;;12.70;4.50;;;9.70;99.90;;;9.88;87.34;99178.78;4993912;28;20070;-74
2023/04/13 01:44:01;;;;;;;12.32;4.30;;;9.60;99.90;;;9.88;87.01;99181.44;4993794;28;20478;-73
2023/04/13 01:46:36;;;;;;;11.20;4.07;;;9.60;99.90;;;9.87;86.42;99188.47;4993531;28;20047;-73
2023/04/13 01:49:18;;;;;;;13.98;4.38;;;9.60;99.90;;;9.90;86.55;99187.53;4993746;28;20152;-74
2023/04/13 01:52:10;;;;;;;13.35;4.63;;;9.60;99.90;;;9.87;85.77;99193.75;4994483;28;20046;-74
2023/04/13 01:54:44;;;;;;;7.18;4.32;;;9.60;99.90;;;9.90;85.44;99182.25;4993635;28;20046;-74
2023/04/13 01:57:14;;;;;;;10.63;4.38;;;9.60;99.90;;;9.96;85.22;99221.69;4994888;28;20050;-74
2023/04/13 01:59:44;;;;;;;10.48;5.20;;;9.70;99.90;;;10.01;84.94;99210.09;4993501;28;20477;-73
2023/04/13 02:02:18;;;;;;;9.88;4.65;;;9.70;99.90;;;10.11;85.00;99209.84;4993496;28;20050;-74
2023/04/13 02:04:47;;;;;;;10.48;4.40;;;9.80;99.90;;;10.10;84.78;99216.06;4993329;28;20481;-73
2023/04/13 02:07:16;;;;;;;10.27;4.38;;;9.80;99.90;;;10.03;85.24;99224.13;4993638;28;20117;-74
2023/04/13 02:09:49;;;;;;;9.82;4.03;;;9.80;99.90;;;10.09;85.74;99223.06;4992920;28;20120;-73
2023/04/13 02:12:17;;;;;;;11.85;4.32;;;9.80;99.90;;;10.06;85.79;99214.38;4993186;28;20058;-73
2023/04/13 02:14:46;;;;;;;11.93;4.65;;;9.80;99.90;;;10.14;85.61;99231.78;4994496;28;20388;-74
2023/04/13 02:17:14;;;;;;;11.25;5.05;;;9.90;99.90;;;10.13;85.88;99231.78;4994533;28;20149;-74
2023/04/13 02:19:44;;;;;;;14.68;5.05;;;9.80;99.90;;;10.21;85.59;99245.66;4993145;28;20107;-74
2023/04/13 02:22:15;;;;;;;11.20;5.35;;;9.90;99.90;;;10.17;85.39;99241.38;4993181;28;20050;-73
2023/04/13 02:24:43;;;;;;;11.75;5.47;;;9.90;99.90;;;10.13;85.32;99235.31;4994278;28;20469;-74
2023/04/13 02:27:12;;;;;;;12.88;5.53;;;9.80;99.90;;;10.08;84.43;99239.84;4994311;28;20034;-74
2023/04/13 02:29:40;;;;;;;18.20;5.00;;;9.80;99.90;;;9.96;84.67;99241.06;4992919;28;20058;-73
2023/04/13 02:32:08;;;;;;;11.85;5.07;;;9.70;99.90;;;10.00;84.45;99245.34;4992852;28;20710;-73
2023/04/13 02:34:37;;;;;;;9.57;4.63;;;9.70;99.90;;;10.01;84.20;99246.19;4992876;28;20500;-74
2023/04/13 02:37:08;;;;;;;12.52;4.93;;;9.70;99.90;;;10.14;84.24;99255.56;4992906;28;20038;-74
2023/04/13 02:39:37;;;;;;;12.93;4.70;;;9.80;99.90;;;10.23;83.71;99257.03;4993052;28;20047;-73
2023/04/13 02:42:07;;;;;;;11.20;5.15;;;9.90;99.90;;;10.20;83.91;99265.06;4992800;28;20042;-73
2023/04/13 02:44:37;;;;;;;12.13;5.03;;;9.90;99.90;;;10.18;84.35;99269.53;4993763;28;20544;-74
2023/04/13 02:47:06;;;;;;;11.85;4.72;;;9.90;99.90;;;10.15;84.28;99265.19;4992811;28;20101;-74
2023/04/13 02:49:36;;;;;;;11.52;4.85;;;9.80;99.90;;;10.06;83.63;99275.13;4992617;28;20052;-74
2023/04/13 02:52:20;;;;;;;10.15;5.47;;;9.80;99.90;;;10.04;83.79;99267.25;4992657;28;20101;-74
2023/04/13 02:55:03;;;;;;;14.75;5.10;;;9.80;99.90;;;9.95;83.30;99263.06;4992636;28;20137;-73
2023/04/13 02:57:44;;;;;;;11.93;5.05;;;9.80;99.90;;;10.09;83.13;99272.38;4992580;28;20046;-74
2023/04/13 03:00:15;;;;;;;23.15;5.57;;;9.80;99.90;;;10.00;83.20;99284.97;4992469;28;20073;-74
2023/04/13 03:02:54;;;;;;;;;;;9.80;99.90;;;10.04;82.91;99298.94;4992956;28;20061;-74
2023/04/13 03:05:27;;;;;;;13.70;5.35;;;9.80;99.90;;;10.07;82.26;99298.84;4992185;28;20016;-74
2023/04/13 03:07:58;;;;;;;12.82;5.20;;;9.80;99.90;;;9.97;82.44;99295.59;4992480;28;20109;-74
2023/04/13 03:10:29;;;;;;;15.57;4.97;;;9.70;99.90;;;10.06;82.56;99293.63;4992323;28;20065;-73
2023/04/13 03:13:00;;;;;;;15.48;5.10;;;9.80;99.90;;;9.99;82.72;99295.53;4992416;28;20137;-74
2023/04/13 03:15:29;;;;;;;13.63;5.68;;;9.80;99.90;;;10.05;82.41;99305.94;4992346;28;20209;-74
2023/04/13 03:17:59;;;;;;;15.68;5.75;;;9.80;99.90;;;10.09;82.41;99319.94;4992054;28;20050;-75
2023/04/13 03:20:30;;;;;;;11.50;5.50;;;9.80;99.90;;;9.99;82.01;99311.38;4992544;28;20447;-74
2023/04/13 03:23:04;;;;;;;13.73;5.40;;;9.80;99.90;;;9.94;82.23;99330.03;4992316;28;20057;-74
2023/04/13 03:25:35;;;;;;;13.70;5.50;;;9.70;99.90;;;9.94;82.14;99331.78;4992306;28;20097;-75
2023/04/13 03:28:05;;;;;;;12.70;5.20;;;9.70;99.90;;;9.79;81.71;99313.72;4992214;28;20526;-74
2023/04/13 03:30:39;;;;;;;12.00;5.10;;;9.70;99.90;;;9.88;81.33;99338.09;4992456;28;20046;-74
2023/04/13 03:33:08;;;;;;;11.30;4.93;;;9.70;99.90;;;9.90;80.59;99336.28;4993064;28;20050;-75
2023/04/13 03:35:38;;;;;;;13.40;5.25;;;9.70;99.90;;;9.92;80.51;99331.84;4992237;28;20839;-75
2023/04/13 03:38:15;;;;;;;9.40;4.88;;;9.70;99.90;;;9.18;80.64;99234.38;4992230;28;20511;-74
2023/04/13 03:40:46;;;;;;;12.57;5.32;;;9.60;99.90;;;9.96;80.43;99351.09;4993757;28;20504;-75
2023/04/13 03:43:15;;;;;;;12.77;5.07;;;9.70;99.90;;;9.72;80.84;99322.69;4991754;28;20152;-75
2023/04/13 03:45:49;;;;;;;13.55;5.07;;;9.70;99.90;;;9.94;81.10;99361.72;4992076;28;20056;-75
2023/04/13 03:48:19;;;;;;;14.90;4.90;;;9.70;99.90;;;9.77;80.50;99336.66;4992088;28;20058;-75
2023/04/13 03:50:47;;;;;;;15.77;5.72;;;9.70;99.90;;;9.99;79.89;99370.38;4991939;28;20305;-75
2023/04/13 03:53:21;;;;;;;11.63;5.28;;;9.70;99.90;;;9.34;79.32;99252.44;4992262;28;20058;-74
2023/04/13 03:55:53;;;;;;;12.75;4.68;;;9.70;99.90;;;10.07;79.18;99369.28;4991960;28;20050;-75
2023/04/13 03:58:21;;;;;;;14.45;5.07;;;9.80;99.90;;;9.99;79.34;99361.56;4991989;28;20054;-74
2023/04/13 04:00:51;;;;;;;14.45;5.80;;;9.80;99.90;;;10.06;79.08;99359.66;4991718;28;20051;-75
2023/04/13 04:03:34;;;;;;;13.77;5.03;;;9.80;99.90;;;9.55;78.62;99278.25;4992279;28;20499;-75
2023/04/13 04:06:08;;;;;;;13.10;4.97;;;9.80;99.90;;;9.94;78.37;99345.88;4991931;28;20058;-75
2023/04/13 04:08:42;;;;;;;12.88;4.90;;;9.80;99.90;;;10.02;78.01;99372.06;4991482;28;20455;-75
2023/04/13 04:11:22;;;;;;;15.98;5.50;;;9.80;99.90;;;10.09;79.47;99376.28;4991898;28;20416;-75
2023/04/13 04:13:51;;;;;;;10.63;4.82;;;9.80;99.90;;;9.95;80.48;99367.84;4991844;28;20101;-74
2023/04/13 04:16:20;;;;;;;12.38;4.68;;;9.80;99.90;;;10.06;81.28;99372.84;4991859;28;20049;-75
2023/04/13 04:18:54;;;;;;;13.10;5.05;;;9.80;99.90;;;10.05;81.68;99369.34;4991785;28;20042;-75
2023/04/13 04:21:22;;;;;;;14.50;5.32;;;9.80;99.90;;;9.99;82.25;99366.84;4991798;28;20058;-75
2023/04/13 04:23:52;;;;;;;13.93;5.00;;;9.80;99.90;;;9.96;83.17;99380.16;4991735;28;20039;-75
2023/04/13 04:26:24;;;;;;;13.55;4.63;;;9.70;99.90;;;9.74;84.29;99386.88;4991775;28;20054;-74
2023/04/13 04:29:01;;;;;;;7.13;4.13;;;9.60;99.90;;;9.55;86.07;99402.31;4991676;28;20054;-74
2023/04/13 04:31:34;;;;;;;11.65;4.47;;;9.30;99.90;;;9.64;86.06;99386.22;4993511;28;20432;-74
2023/04/13 04:34:09;;;;;;;7.88;4.32;;;9.40;99.90;;;9.63;86.57;99383.63;4995198;28;20058;-74
2023/04/13 04:36:40;;;;;;;10.30;4.63;;;9.40;99.90;;;9.77;87.30;99400.00;4995185;28;20054;-74
2023/04/13 04:39:13;;;;;;;9.25;4.63;;;9.40;99.90;;;9.62;88.65;99390.69;4995041;28;20061;-74
2023/04/13 04:41:52;;;;;;;9.60;4.18;;;9.40;99.90;;;9.64;89.38;99404.72;4995052;28;20050;-74
2023/04/13 04:44:23;;;;;;;12.02;4.85;;;9.40;99.90;;;9.65;90.19;99401.19;4995032;28;20053;-74
2023/04/13 04:46:54;;;;;;;9.52;4.68;;;9.40;99.90;;;9.84;90.58;99423.59;4994927;28;20050;-74
2023/04/13 04:49:22;;;;;;;7.78;4.72;;;9.50;99.90;;;9.63;89.99;99418.81;4994850;28;20077;-74
2023/04/13 04:51:51;;;;;;;9.88;4.88;;;9.40;99.90;;;9.58;91.17;99414.56;4994717;28;20052;-74
2023/04/13 04:54:22;;;;;;;8.30;4.00;;;9.40;99.90;;;9.69;90.63;99429.25;4994770;28;20085;-74
2023/04/13 04:56:51;;;;;;;7.72;3.92;;;9.40;99.90;;;9.10;90.37;99334.78;4994967;28;20104;-74
2023/04/13 04:59:21;;;;;;;11.48;4.82;;;9.40;99.90;;;9.68;90.84;99443.31;4994934;28;20503;-74
2023/04/13 05:01:57;;;;;;;8.68;4.63;;;9.50;99.90;;;9.58;91.65;99440.97;4994715;28;20054;-74
2023/04/13 05:04:25;;;;;;;11.80;3.90;;;9.40;99.90;;;9.35;91.97;99438.81;4994558;28;20443;-73
2023/04/13 05:06:54;;;;;;;6.30;4.40;;;9.20;99.90;;;9.34;92.04;99437.09;4994790;28;20427;-73
2023/04/13 05:09:26;;;;;;;7.95;4.55;;;9.10;99.90;;;9.56;92.39;99440.97;4994422;28;20062;-73
2023/04/13 05:11:57;;;;;;;10.30;4.70;;;9.20;99.90;;;9.57;92.54;99440.09;4994711;28;20057;-73
2023/04/13 05:14:25;;;;;;;11.82;5.30;;;9.30;99.90;;;9.49;93.76;99435.88;4995384;28;20042;-73
2023/04/13 05:16:54;;;;;;;14.43;5.18;;;9.30;99.90;;;9.44;95.31;99446.56;4994369;28;20097;-73
2023/04/13 05:19:26;;;;;;;11.57;5.40;;;9.20;99.90;;;9.65;94.75;99438.13;4994300;28;20139;-73
2023/04/13 05:22:24;;;;;;;13.85;5.05;;;9.40;99.90;;;9.70;94.22;99445.94;4994901;28;20046;-73
2023/04/13 05:25:00;;;;;;;16.60;5.90;;;9.50;99.90;;;9.71;94.05;99445.91;4994228;28;20065;-73
2023/04/13 05:27:30;;;;;;;16.30;5.65;;;9.50;99.90;;;9.79;94.26;99456.28;4994462;28;20462;-75
2023/04/13 05:29:58;;;;;;;20.50;5.55;;;9.60;99.90;;;9.85;94.16;99457.00;4995572;28;20070;-73
2023/04/13 05:32:27;;;;;;;13.63;6.07;;;9.60;99.90;;;9.89;94.45;99456.00;4993577;28;20440;-73
2023/04/13 05:34:59;;;;;;;22.13;6.40;;;9.70;99.90;;;10.03;93.99;99479.44;4994074;28;20059;-73
2023/04/13 05:37:27;;;;;;;17.48;6.10;;;9.80;99.90;;;9.96;93.43;99470.81;4993919;28;20097;-73
2023/04/13 05:39:56;;;;;;;21.58;6.15;;;9.80;99.90;;;9.95;93.54;99478.75;4993909;28;20038;-73
2023/04/13 05:42:32;;;;;;;14.80;5.50;;;9.70;99.90;;;9.81;91.95;99478.25;4992839;28;20101;-73
2023/04/13 05:45:02;;;;;;;;;;;9.70;99.90;;;9.93;91.62;99468.25;4994461;28;20492;-73
2023/04/13 05:47:31;;;;;;;20.42;6.22;;;9.70;99.90;;;9.88;90.92;99480.69;4993758;28;19925;-73
2023/04/13 05:50:09;;;;;;;20.35;5.93;;;9.70;99.90;;;10.09;91.17;99487.22;4993624;28;20070;-73
2023/04/13 05:52:37;;;;;;;16.27;5.63;;;9.80;99.90;;;9.96;90.79;99496.34;4993674;28;20050;-74
2023/04/13 05:55:06;;;;;;;19.83;6.30;;;9.80;99.90;;;9.96;90.28;99488.44;4993906;28;20045;-73
2023/04/13 05:57:37;;;;;;;16.53;5.57;;;9.80;99.90;;;10.03;89.50;99498.81;4994884;28;20064;-73
2023/04/13 06:00:12;;;;;;;21.38;6.05;;;9.80;99.90;;;9.96;89.35;99504.28;4993575;28;20136;-73
2023/04/13 06:02:47;;;;;;;17.35;6.07;;;9.80;99.90;;;9.95;89.26;99515.72;4993462;28;20046;-73
2023/04/13 06:05:17;;;;;;;21.35;5.97;;;9.70;99.90;;;9.95;90.14;99510.44;4993374;28;20062;-73
2023/04/13 06:07:46;;;;;;;21.35;6.07;;;9.80;99.90;;;9.92;90.79;99529.91;4993254;28;20484;-73
2023/04/13 06:10:15;;;;;;;27.00;5.95;;;9.80;99.90;;;9.78;91.52;99545.19;4992810;28;20051;-73
2023/04/13 06:12:47;;;;;;;20.08;5.57;;;9.60;99.90;;;9.57;91.44;99529.81;4994253;28;20124;-73
2023/04/13 06:15:17;;;;;;;15.35;5.25;;;9.50;99.90;;;9.76;92.20;99544.34;4994752;28;20039;-73
2023/04/13 06:17:45;;;;;;;23.08;6.30;;;9.50;99.90;;;9.87;92.41;99555.53;4994195;28;20038;-73
2023/04/13 06:20:14;;;;;;;20.40;5.78;;;9.60;99.90;;;9.94;92.02;99565.06;4993255;28;20050;-73
2023/04/13 06:22:42;;;;;;;20.05;6.03;;;9.70;99.90;;;9.94;91.49;99551.00;4993046;28;20058;-73
2023/04/13 06:25:12;;;;;;;24.30;6.22;;;9.70;99.90;;;10.00;90.82;99554.38;4992983;28;20050;-74
2023/04/13 06:27:43;;;;;;;23.48;6.32;;;9.80;99.90;;;10.10;90.90;99562.97;4992991;28;20416;-74
2023/04/13 06:30:13;;;;;;;20.92;5.60;;;9.80;99.90;;;10.12;90.31;99557.66;4992775;28;20050;-74
2023/04/13 06:32:42;;;;;;;19.23;6.75;;;9.90;99.90;;;10.11;89.26;99574.38;4992699;28;20108;-74
2023/04/13 06:35:12;;;;;;;20.77;6.68;;;9.90;99.90;;;10.21;89.27;99581.19;4992850;28;20046;-74
2023/04/13 06:37:45;;;;;;;22.15;6.40;;;10.00;99.90;;;10.13;88.67;99591.06;4993127;28;20050;-75
2023/04/13 06:40:19;;;;;;;22.23;6.28;;;9.90;99.90;;;9.92;87.74;99564.25;4992755;28;20046;-74
2023/04/13 06:43:02;;;;;;;22.83;6.03;;;9.90;99.90;;;10.08;88.90;99600.84;4993100;28;20058;-74
2023/04/13 06:46:04;;;;;;;24.42;6.70;;;9.90;99.90;;;10.13;89.47;99610.44;4992439;28;20500;-73
2023/04/13 06:48:42;;;;;;;31.13;7.13;;;9.90;99.90;;;10.13;89.61;99607.81;4992944;28;20061;-73
2023/04/13 06:51:17;;;;;;;24.13;6.90;;;9.90;99.90;;;10.18;89.46;99595.34;4992600;28;20082;-72
2023/04/13 06:53:47;;;;;;;26.88;6.80;;;9.90;99.90;;;10.22;89.31;99612.03;4992025;28;20100;-73
2023/04/13 06:56:15;;;;;;;26.15;7.25;;;10.00;99.90;;;10.32;88.91;99610.88;4992775;28;20054;-74
2023/04/13 06:58:45;;;;;;;33.35;7.40;;;10.00;99.90;;;10.35;88.48;99613.47;4992551;28;20054;-73
2023/04/13 07:01:15;;;;;;;21.50;6.28;;;10.10;99.90;;;10.34;87.24;99615.22;4992504;28;20050;-72
2023/04/13 07:03:45;;;;;;;21.30;5.82;;;10.10;99.90;;;10.32;86.51;99630.25;4992566;28;20050;-73
2023/04/13 07:06:15;;;;;;;;;;;10.10;99.90;;;10.44;85.92;99637.91;4993894;28;20038;-73
2023/04/13 07:08:44;;;;;;;21.90;6.45;;;10.20;99.90;;;10.54;86.09;99633.25;4992106;28;19929;-72
2023/04/13 07:11:13;;;;;;;21.50;6.78;;;10.30;99.90;;;10.35;85.35;99642.53;4993136;28;20410;-71
2023/04/13 07:13:42;;;;;;;21.27;6.20;;;10.20;99.90;;;10.40;85.61;99644.16;4993878;28;20046;-71
2023/04/13 07:16:14;;;;;;;29.10;6.95;;;10.20;99.90;;;10.41;85.03;99650.31;4992379;28;20050;-73
2023/04/13 07:18:46;;;;;;;27.02;7.20;;;10.20;99.90;;;10.43;83.54;99667.03;4992040;28;20054;-73
2023/04/13 07:21:14;;;;;;;21.73;6.20;;;10.20;99.90;;;10.42;82.62;99654.69;4993247;28;20500;-71
2023/04/13 07:24:15;;;;;;;21.98;6.25;;;10.20;99.90;;;10.40;81.93;99672.34;4983883;28;20058;-72
2023/04/13 07:26:45;;;;;;;26.38;6.68;;;10.10;99.90;;;10.56;82.21;99682.56;4992226;28;20141;-72
2023/04/13 07:29:16;;;;;;;22.65;6.15;;;10.30;99.90;;;10.52;81.48;99675.59;4992384;28;20042;-72
2023/04/13 07:31:51;;;;;;;19.27;5.20;;;10.30;99.90;;;10.48;80.56;99675.69;4991849;28;20065;-71
2023/04/13 07:34:20;;;;;;;21.02;5.93;;;10.30;99.90;;;10.57;80.33;99691.34;4992221;28;20477;-71
2023/04/13 07:36:50;;;;;;;18.67;5.43;;;10.30;99.90;;;10.54;80.50;99689.66;4992109;28;20038;-72
2023/04/13 07:39:21;;;;;;;16.15;5.57;;;10.30;99.90;;;10.55;80.04;99707.25;4992090;28;20058;-70
2023/04/13 07:41:52;;;;;;;22.88;6.15;;;10.40;99.90;;;10.51;79.18;99702.09;4992275;28;20142;-70
2023/04/13 07:44:35;;;;;;;23.13;6.25;;;10.30;99.90;;;10.56;79.09;99698.41;4992339;28;20264;-72
2023/04/13 07:47:05;;;;;;;19.13;5.65;;;10.30;99.90;;;10.63;78.71;99723.81;4992283;28;20120;-72
2023/04/13 07:49:37;;;;;;;22.55;6.18;;;10.30;99.90;;;10.60;78.90;99713.31;4992292;28;20046;-72
2023/04/13 07:52:10;;;;;;;22.05;6.40;;;10.40;99.90;;;10.58;78.33;99722.16;4992022;28;20072;-72
2023/04/13 07:54:40;;;;;;;20.98;5.80;;;10.30;99.90;;;10.57;79.15;99737.16;4992037;28;20043;-72
2023/04/13 07:57:10;;;;;;;27.15;6.75;;;10.30;99.90;;;10.68;79.16;99742.22;4992090;28;20047;-72
2023/04/13 07:59:44;;;;;;;19.63;6.07;;;10.40;99.90;;;10.59;77.77;99743.28;4991966;28;20050;-72
2023/04/13 08:02:16;;;;;;;21.27;6.70;;;10.40;99.90;;;10.66;77.06;99752.84;4991934;28;20046;-71
2023/04/13 08:04:49;;;;;;;21.65;6.32;;;10.40;99.90;;;10.72;76.63;99759.75;4991903;28;20050;-70
2023/04/13 08:07:22;;;;;;;19.85;5.88;;;10.50;99.90;;;10.86;76.72;99757.63;4995373;28;20479;-70
2023/04/13 08:09:51;;;;;;;20.42;5.60;;;10.60;99.90;;;10.91;76.46;99766.34;4996867;28;20042;-70
2023/04/13 08:12:21;;;;;;;22.98;5.93;;;10.70;99.90;;;11.06;76.25;99765.97;4995464;28;20046;-70
2023/04/13 08:14:51;;;;;;;26.40;7.35;;;10.80;99.90;;;11.12;76.13;99784.38;4995528;28;20518;-70
2023/04/13 08:17:21;;;;;;;17.25;5.43;;;10.90;99.90;;;11.02;74.91;99782.84;4995611;28;20116;-70
2023/04/13 08:19:51;;;;;;;23.33;6.65;;;10.80;99.90;;;11.04;74.99;99777.50;4995381;28;20428;-70
2023/04/13 08:22:20;;;;;;;22.45;6.03;;;10.80;99.90;;;11.05;74.68;99789.84;4995248;28;20053;-69
2023/04/13 08:24:48;;;;;;;20.35;5.95;;;10.90;99.90;;;11.08;74.62;99793.28;4995436;28;20046;-69
2023/04/13 08:27:18;;;;;;;26.33;6.13;;;10.90;99.90;;;11.06;74.52;99789.78;4996435;28;20117;-72
2023/04/13 08:29:46;;;;;;;16.10;6.30;;;10.90;99.90;;;11.13;73.95;99798.47;5011642;28;20055;-72
2023/04/13 08:32:15;;;;;;;19.13;6.20;;;10.90;99.90;;;11.10;73.64;99798.53;4994880;28;20408;-73
2023/04/13 08:34:45;;;;;;;22.27;6.65;;;10.90;99.90;;;11.26;73.62;99795.50;4995163;28;20065;-72
2023/04/13 08:37:16;;;;;;;17.30;5.40;;;11.00;99.90;;;11.42;72.57;99810.06;4995171;28;20081;-72
2023/04/13 08:39:47;;;;;;;16.97;5.50;;;11.20;99.90;;;11.63;72.70;99806.03;4995012;28;20054;-73
2023/04/13 08:42:19;;;;;;;20.25;5.97;;;11.40;99.90;;;11.63;72.05;99814.81;4994789;28;20054;-72
2023/04/13 08:44:51;;;;;;;19.73;5.25;;;11.50;99.90;;;11.62;71.07;99815.75;4995159;28;20046;-72
2023/04/13 08:47:20;;;;;;;21.13;6.30;;;11.50;99.90;;;11.62;70.54;99812.22;4995012;28;20054;-72
2023/04/13 08:49:50;;;;;;;17.95;5.80;;;11.40;99.90;;;11.66;70.68;99828.03;4994577;28;20073;-72
2023/04/13 08:52:31;;;;;;;19.58;5.85;;;11.40;99.90;;;11.67;70.37;99821.81;4996168;28;20070;-72
2023/04/13 08:55:01;;;;;;;15.60;5.65;;;11.50;99.90;;;11.54;70.99;99838.03;4995798;28;20484;-72
2023/04/13 08:57:33;;;;;;;20.85;6.38;;;11.30;99.90;;;11.62;71.60;99821.03;4994692;28;20373;-72
2023/04/13 09:00:09;;;;;;;21.85;6.22;;;11.50;99.90;;;11.91;71.53;99843.28;4994991;28;20133;-72
2023/04/13 09:02:41;;;;;;;19.52;6.38;;;11.60;99.90;;;12.11;70.40;99835.69;5010975;28;20472;-73
2023/04/13 09:05:32;;;;;;;20.33;5.18;;;11.80;99.90;;;12.15;69.31;99853.25;4995796;28;20050;-72
2023/04/13 09:08:06;;;;;;;21.30;6.15;;;11.90;99.90;;;12.08;70.01;99851.69;4994597;28;20105;-73
2023/04/13 09:10:37;;;;;;;26.10;6.05;;;11.90;99.90;;;12.25;70.64;99865.34;4994806;28;20071;-71
2023/04/13 09:13:08;;;;;;;19.25;5.70;;;12.00;99.90;;;12.32;71.11;99867.78;4994463;28;20050;-72
2023/04/13 09:15:37;;;;;;;22.40;6.15;;;12.10;99.90;;;12.39;70.89;99864.03;4994364;28;20423;-72
2023/04/13 09:18:19;;;;;;;24.10;6.78;;;12.10;99.90;;;12.37;70.53;99879.13;4994087;28;20043;-73
2023/04/13 09:20:59;;;;;;;19.08;5.82;;;12.20;99.90;;;12.27;69.64;99896.19;4994361;28;20046;-74
2023/04/13 09:23:28;;;;;;;20.52;5.82;;;12.00;99.90;;;12.15;69.30;99888.59;4995869;28;20126;-73
2023/04/13 09:26:07;;;;;;;19.20;6.07;;;12.00;99.90;;;11.89;69.84;99893.66;4995220;28;20050;-73
2023/04/13 09:28:47;;;;;;;20.67;5.47;;;11.70;99.90;;;11.70;70.64;99900.34;4994153;28;20055;-72
2023/04/13 09:31:15;;;;;;;21.92;6.03;;;11.50;99.90;;;12.03;71.58;99918.06;4994718;28;20133;-72
2023/04/13 09:33:45;;;;;;;25.00;6.25;;;11.70;99.90;;;11.95;71.53;99911.19;4995346;28;20404;-72
2023/04/13 09:36:17;;;;;;;27.08;6.35;;;11.70;99.90;;;11.60;71.34;99912.91;4995335;28;20077;-72
2023/04/13 09:38:50;;;;;;;18.95;5.97;;;11.40;99.90;;;11.64;70.68;99913.69;4994017;28;20052;-72
2023/04/13 09:41:33;;;;;;;17.42;5.38;;;11.50;99.90;;;11.63;70.31;99909.31;4993953;28;20049;-73
2023/04/13 09:44:02;;;;;;;18.38;5.70;;;11.50;99.90;;;11.78;70.38;99927.53;4995201;28;20042;-73
2023/04/13 09:46:31;;;;;;;20.70;5.80;;;11.50;99.90;;;11.60;69.48;99912.03;4993838;28;20389;-72
2023/04/13 09:49:02;;;;;;;23.27;5.97;;;11.50;99.90;;;11.89;69.80;99932.53;4995058;28;20069;-73
2023/04/13 09:51:41;;;;;;;21.15;5.65;;;11.60;99.90;;;12.06;69.85;99938.31;4993807;28;20069;-73
2023/04/13 09:54:11;;;;;;;20.02;6.25;;;11.80;99.90;;;12.05;69.21;99958.63;4994768;28;20048;-73
2023/04/13 09:56:45;;;;;;;23.52;6.40;;;11.80;99.90;;;12.08;67.98;99952.41;4993627;28;20050;-73
2023/04/13 09:59:14;;;;;;;20.00;6.00;;;11.90;99.90;;;12.12;67.23;99957.56;4994602;28;20492;-73
2023/04/13 10:01:43;;;;;;;17.10;5.57;;;11.90;99.90;;;12.14;67.88;99970.78;4994833;28;20101;-72
2023/04/13 10:04:12;;;;;;;24.83;7.05;;;11.80;99.90;;;12.21;68.26;99970.59;4993700;28;20054;-73
2023/04/13 10:06:43;;;;;;;21.52;5.97;;;11.90;99.90;;;12.21;68.26;99985.63;4994729;28;20050;-72
2023/04/13 10:09:12;;;;;;;17.42;5.53;;;11.90;99.90;;;12.13;67.09;99984.94;4994465;28;20042;-73
2023/04/13 10:11:45;;;;;;;18.08;5.60;;;11.90;99.90;;;12.22;67.91;99995.31;4993695;28;20034;-73
2023/04/13 10:14:18;;;;;;;17.20;5.65;;;11.90;99.90;;;12.08;67.73;100016.00;5009627;28;20043;-72
2023/04/13 10:17:18;;;;;;;24.90;6.65;;;11.90;99.90;;;12.21;68.64;99981.22;4994375;28;20084;-73
2023/04/13 10:19:49;;;;;;;;;;;11.90;99.90;;;12.20;68.75;99975.91;4994670;28;20050;-73
2023/04/13 10:22:21;;;;;;;18.60;5.65;;;12.00;99.90;;;12.32;68.80;100000.34;4994253;28;20339;-73
2023/04/13 10:24:52;;;;;;;20.60;5.97;;;12.10;99.90;;;12.23;68.16;100005.88;4993149;28;20047;-72
2023/04/13 10:27:22;;;;;;;20.40;5.82;;;12.00;99.90;;;12.24;68.08;100018.22;4993287;28;20061;-71
2023/04/13 10:29:51;;;;;;;18.95;5.72;;;12.00;99.90;;;12.33;68.75;100010.03;4993390;28;20042;-72
2023/04/13 10:32:25;;;;;;;22.35;5.47;;;12.00;99.90;;;12.17;68.80;99982.19;4993975;28;20046;-72
2023/04/13 10:34:55;;;;;;;20.42;5.82;;;12.10;99.90;;;12.34;67.81;100024.19;4994004;28;20042;-72
2023/04/13 10:37:28;;;;;;;17.23;5.95;;;12.10;99.90;;;12.45;68.99;100019.47;5009398;28;20069;-72
2023/04/13 10:40:06;;;;;;;14.30;5.78;;;12.20;99.90;;;12.68;69.26;100027.69;4993977;28;20038;-73
2023/04/13 10:42:43;;;;;;;20.17;5.82;;;12.30;99.90;;;12.67;68.03;100036.59;4992950;28;20069;-72